Аэропорт: Иркутск. Иркутск

ICAO: UIII

METAR:
2019/03/26 13:00
UIII 261300Z 30003MPS CAVOK M04/M14 Q1030 R30/CLRD60 NOSIG RMK QFE727/0970
METAR:
2019/03/26 12:21
TAF UIII 261100Z 2612/2712 32006MPS 9999 NSC 
      BECMG 2614/2616 VRB01MPS 
      TEMPO 2616/2703 0300 FZFG VV001 
      BECMG 2703/2705 16006MPS